Aeroporto :
LOGIN :

Iscrizione | Disclaimer

   EN    FR    IT 

 










Sommario :    VFR   VFR Marginale   IFR   IFR Intensivo   IFR Molto Intensivo
Visibilità : 
Base nubi : 
>= 8 km
>= 3000ft
5 / 8 km
1000 / 3000 ft
1500m / 5 km
500 / 1000 ft
800 / 1500m
200 / 500 ft
< 800m
< 200 ft
Simboli :   Temporali  Nebbia  Neve Forte  Precipitazioni Forti  Vento > 20 kt
SIGMETs :   Varie  Temporali  Ghiacco  Turbolenza  Onda orograficha  Ceneri Vulcaniche






- Altitudine del aeroporto : 49 ft
- Codice IATA : SEN


EGMC - Southend

ULTIMO METAR :
  • 111920Z 25010KT CAVOK 07/02 Q1001

METARs OBSOLETI :
  • 111850Z 24010KT 9999 FEW040 07/02 Q1001
  • 111820Z 26010KT 9999 FEW039 07/02 Q1001
  • 111750Z 26011KT 9999 FEW049 07/02 Q1001
  • 111720Z 25011KT 9999 FEW046 08/02 Q1001
  • 111650Z 26015KT 9999 FEW041 08/02 Q1000

TAF TAF EGMC
Valido dal 11 a 18 ore il 12 a 03 ore UTC


111701Z 1118/1203 25010KT 9999 FEW030



MetMap, La meteo Aeronautica in un colpo d'occhio ! - Copyright ORBIFLY Dicembre 2007 - Disclaimer

ORBIFLY MET'MAP TEAM :

Programmazione e sviluppo : Alexandra Zaïnal
Concezione e sviluppo : Baudouin d'Aumeries
Co-Programmazione e sviluppo : Marc-Olivier Méhu
Supporto tecnico e logistico : Manuel Goepfert
Aiuto per la traduzione : Arnaldo La Scala

Contatto : metmap@orbifly.com




FONTI E CREDITI :

   NOAA